Time,TemperatureF,DewpointF,PressureIn,WindDirection,WindDirectionDegrees,WindSpeedMPH,WindSpeedGustMPH,Humidity,HourlyPrecipIn,Conditions,Clouds,dailyrainin,SoftwareType,DateUTC
2013-03-14 00:01:00,62.0,35.0,30.08,NNW,330,0.0,-999.0,37,-99.99,,,-99.99,,2013-03-14 07:01:00,
2013-03-14 00:22:00,60.0,38.0,30.09,NNW,330,0.0,-999.0,44,-99.99,,,-99.99,,2013-03-14 07:22:00,
2013-03-14 00:32:00,59.0,38.0,30.09,NNW,330,0.0,-999.0,46,-99.99,,,-99.99,,2013-03-14 07:32:00,
2013-03-14 00:42:00,59.0,38.0,30.09,NNW,330,0.0,-999.0,46,-99.99,,,-99.99,,2013-03-14 07:42:00,
2013-03-14 00:52:00,59.0,38.0,30.08,NNW,330,0.0,-999.0,45,-99.99,,,-99.99,,2013-03-14 07:52:00,
2013-03-14 01:01:00,59.0,38.0,30.08,NNW,330,0.0,-999.0,46,-99.99,,,-99.99,,2013-03-14 08:01:00,
2013-03-14 01:21:00,58.0,39.0,30.08,NNW,330,0.0,-999.0,49,-99.99,,,-99.99,,2013-03-14 08:21:00,
2013-03-14 01:31:00,57.0,42.0,30.08,NNW,346,1.0,-999.0,57,-99.99,,,-99.99,,2013-03-14 08:31:00,
2013-03-14 01:41:00,57.0,42.0,30.08,NNW,346,1.0,-999.0,57,-99.99,,,-99.99,,2013-03-14 08:41:00,
2013-03-14 01:52:00,55.0,42.0,30.08,NNW,346,0.0,-999.0,61,-99.99,,,-99.99,,2013-03-14 08:52:00,
2013-03-14 02:01:00,56.0,41.0,30.07,NNW,346,0.0,-999.0,56,-99.99,,,-99.99,,2013-03-14 09:01:00,
2013-03-14 02:11:00,56.0,41.0,30.07,NNW,346,0.0,-999.0,56,-99.99,,,-99.99,,2013-03-14 09:11:00,
2013-03-14 02:22:00,51.0,43.0,30.08,NNW,346,1.0,-999.0,73,-99.99,,,-99.99,,2013-03-14 09:22:00,
2013-03-14 02:31:00,47.0,42.0,30.08,NNW,344,0.0,-999.0,84,-99.99,,,-99.99,,2013-03-14 09:31:00,
2013-03-14 02:41:00,47.0,42.0,30.08,NNW,344,0.0,-999.0,84,-99.99,,,-99.99,,2013-03-14 09:41:00,
2013-03-14 02:52:00,46.0,42.0,30.08,NNW,344,1.0,-999.0,87,-99.99,,,-99.99,,2013-03-14 09:52:00,
2013-03-14 03:01:00,46.0,43.0,30.08,NNW,344,1.0,-999.0,90,-99.99,,,-99.99,,2013-03-14 10:01:00,
2013-03-14 03:11:00,46.0,43.0,30.08,NNW,344,1.0,-999.0,90,-99.99,,,-99.99,,2013-03-14 10:11:00,
2013-03-14 03:22:00,49.0,41.0,30.09,NNW,333,1.0,-999.0,75,-99.99,,,-99.99,,2013-03-14 10:22:00,
2013-03-14 03:31:00,51.0,41.0,30.08,NNW,333,0.0,-999.0,68,-99.99,,,-99.99,,2013-03-14 10:31:00,
2013-03-14 03:42:00,51.0,41.0,30.08,NNW,333,0.0,-999.0,68,-99.99,,,-99.99,,2013-03-14 10:42:00,
2013-03-14 03:52:00,54.0,39.0,30.07,NNW,333,0.0,-999.0,56,-99.99,,,-99.99,,2013-03-14 10:52:00,
2013-03-14 04:01:00,56.0,37.0,30.07,NNW,344,1.0,-999.0,49,-99.99,,,-99.99,,2013-03-14 11:01:00,
2013-03-14 04:22:00,59.0,38.0,30.06,NNW,348,2.0,-999.0,46,-99.99,,,-99.99,,2013-03-14 11:22:00,
2013-03-14 04:32:00,59.0,37.0,30.06,NNW,348,0.0,-999.0,44,-99.99,,,-99.99,,2013-03-14 11:32:00,
2013-03-14 04:52:00,59.0,38.0,30.06,NNW,348,0.0,-999.0,45,-99.99,,,-99.99,,2013-03-14 11:52:00,
2013-03-14 05:01:00,59.0,34.0,30.05,NNW,348,0.0,-999.0,39,-99.99,,,-99.99,,2013-03-14 12:01:00,
2013-03-14 05:21:00,60.0,34.0,30.06,NNW,348,0.0,-999.0,38,-99.99,,,-99.99,,2013-03-14 12:21:00,
2013-03-14 05:32:00,60.0,34.0,30.05,NNW,348,0.0,-999.0,38,-99.99,,,-99.99,,2013-03-14 12:32:00,
2013-03-14 05:52:00,59.0,37.0,30.05,NNW,348,0.0,-999.0,44,-99.99,,,-99.99,,2013-03-14 12:52:00,
2013-03-14 06:01:00,57.0,36.0,30.06,NNW,348,0.0,-999.0,45,-99.99,,,-99.99,,2013-03-14 13:01:00,
2013-03-14 06:21:00,58.0,32.0,30.06,NNW,348,0.0,-999.0,37,-99.99,,,-99.99,,2013-03-14 13:21:00,
2013-03-14 06:32:00,61.0,33.0,30.06,NNW,348,0.0,-999.0,35,-99.99,,,-99.99,,2013-03-14 13:32:00,
2013-03-14 06:52:00,62.0,32.0,30.05,NNW,348,1.0,-999.0,32,-99.99,,,-99.99,,2013-03-14 13:52:00,
2013-03-14 07:02:00,63.0,33.0,30.05,North,349,0.0,-999.0,32,-99.99,,,-99.99,,2013-03-14 14:02:00,
2013-03-14 07:22:00,62.0,32.0,30.05,North,349,1.0,-999.0,32,-99.99,,,-99.99,,2013-03-14 14:22:00,
2013-03-14 07:31:00,63.0,32.0,30.06,NNW,348,0.0,-999.0,31,-99.99,,,-99.99,,2013-03-14 14:31:00,
2013-03-14 07:52:00,62.0,32.0,30.06,North,349,1.0,-999.0,32,-99.99,,,-99.99,,2013-03-14 14:52:00,
2013-03-14 08:22:00,61.0,34.0,30.06,NNW,348,0.0,-999.0,36,-99.99,,,-99.99,,2013-03-14 15:22:00,
2013-03-14 08:32:00,58.0,37.0,30.07,NNW,348,2.0,-999.0,45,-99.99,,,-99.99,,2013-03-14 15:32:00,
2013-03-14 08:52:00,60.0,37.0,30.07,NNW,348,0.0,-999.0,43,-99.99,,,-99.99,,2013-03-14 15:52:00,
2013-03-14 09:02:00,63.0,38.0,30.08,NNW,348,0.0,-999.0,40,-99.99,,,-99.99,,2013-03-14 16:02:00,
2013-03-14 09:32:00,63.0,38.0,30.10,NNW,330,1.0,-999.0,40,-99.99,,,-99.99,,2013-03-14 16:32:00,
2013-03-14 10:31:00,65.0,44.0,30.11,NNW,330,0.0,-999.0,46,-99.99,,,-99.99,,2013-03-14 17:31:00,
2013-03-14 10:42:00,65.0,44.0,30.11,NNW,330,0.0,-999.0,46,-99.99,,,-99.99,,2013-03-14 17:42:00,
2013-03-14 10:52:00,64.0,49.0,30.11,NNW,330,0.0,-999.0,59,-99.99,,,-99.99,,2013-03-14 17:52:00,
2013-03-14 11:02:00,64.0,51.0,30.12,NNW,331,0.0,-999.0,62,-99.99,,,-99.99,,2013-03-14 18:02:00,
2013-03-14 11:12:00,64.0,51.0,30.12,NNW,331,0.0,-999.0,62,-99.99,,,-99.99,,2013-03-14 18:12:00,
2013-03-14 11:22:00,63.0,42.0,30.12,NNW,329,1.0,-999.0,47,-99.99,,,-99.99,,2013-03-14 18:22:00,
2013-03-14 11:32:00,62.0,44.0,30.11,NNW,329,0.0,-999.0,52,-99.99,,,-99.99,,2013-03-14 18:32:00,
2013-03-14 11:42:00,62.0,44.0,30.11,NNW,329,0.0,-999.0,52,-99.99,,,-99.99,,2013-03-14 18:42:00,
2013-03-14 11:52:00,64.0,42.0,30.11,NNW,329,1.0,-999.0,44,-99.99,,,-99.99,,2013-03-14 18:52:00,
2013-03-14 12:01:00,66.0,44.0,30.11,NW,323,1.0,-999.0,45,-99.99,,,-99.99,,2013-03-14 19:01:00,
2013-03-14 12:12:00,66.0,44.0,30.11,NW,323,1.0,-999.0,45,-99.99,,,-99.99,,2013-03-14 19:12:00,
2013-03-14 12:22:00,67.0,42.0,30.11,NW,313,1.0,-999.0,40,-99.99,,,-99.99,,2013-03-14 19:22:00,
2013-03-14 12:31:00,69.0,47.0,30.11,North,5,1.0,-999.0,45,-99.99,,,-99.99,,2013-03-14 19:31:00,
2013-03-14 12:42:00,69.0,47.0,30.11,North,5,1.0,-999.0,45,-99.99,,,-99.99,,2013-03-14 19:42:00,
2013-03-14 12:52:00,66.0,49.0,30.11,West,266,2.0,-999.0,54,-99.99,,,-99.99,,2013-03-14 19:52:00,
2013-03-14 13:01:00,60.0,51.0,30.11,West,259,0.0,-999.0,72,-99.99,,,-99.99,,2013-03-14 20:01:00,
2013-03-14 13:11:00,60.0,51.0,30.11,West,259,0.0,-999.0,72,-99.99,,,-99.99,,2013-03-14 20:11:00,
2013-03-14 13:21:00,61.0,50.0,30.10,WSW,254,0.0,-999.0,68,-99.99,,,-99.99,,2013-03-14 20:21:00,
2013-03-14 13:31:00,61.0,49.0,30.11,WSW,240,1.0,-999.0,65,-99.99,,,-99.99,,2013-03-14 20:31:00,
2013-03-14 13:42:00,61.0,49.0,30.11,WSW,240,1.0,-999.0,65,-99.99,,,-99.99,,2013-03-14 20:42:00,
2013-03-14 13:52:00,57.0,49.0,30.11,SSW,212,0.0,-999.0,75,-99.99,,,-99.99,,2013-03-14 20:52:00,
2013-03-14 14:02:00,58.0,48.0,30.10,SSW,200,1.0,-999.0,70,-99.99,,,-99.99,,2013-03-14 21:02:00,
2013-03-14 14:12:00,58.0,48.0,30.10,SSW,200,1.0,-999.0,70,-99.99,,,-99.99,,2013-03-14 21:12:00,
2013-03-14 14:32:00,64.0,52.0,30.10,NE,55,1.0,-999.0,64,-99.99,,,-99.99,,2013-03-14 21:32:00,
2013-03-14 14:43:00,64.0,52.0,30.10,NE,55,1.0,-999.0,64,-99.99,,,-99.99,,2013-03-14 21:43:00,
2013-03-14 14:53:00,62.0,50.0,30.09,NE,55,1.0,-999.0,65,-99.99,,,-99.99,,2013-03-14 21:53:00,
2013-03-14 15:03:00,59.0,49.0,30.09,SSW,210,1.0,-999.0,70,-99.99,,,-99.99,,2013-03-14 22:03:00,
2013-03-14 15:12:00,59.0,49.0,30.09,SSW,210,1.0,-999.0,70,-99.99,,,-99.99,,2013-03-14 22:12:00,
2013-03-14 15:23:00,57.0,50.0,30.09,SSW,212,1.0,-999.0,77,-99.99,,,-99.99,,2013-03-14 22:23:00,
2013-03-14 15:32:00,58.0,50.0,30.09,SSW,196,1.0,-999.0,76,-99.99,,,-99.99,,2013-03-14 22:32:00,
2013-03-14 15:41:00,58.0,50.0,30.09,SSW,196,1.0,-999.0,76,-99.99,,,-99.99,,2013-03-14 22:41:00,
2013-03-14 15:52:00,57.0,50.0,30.09,SSW,192,1.0,-999.0,77,-99.99,,,-99.99,,2013-03-14 22:52:00,
2013-03-14 16:02:00,60.0,51.0,30.08,SSW,193,1.0,-999.0,72,-99.99,,,-99.99,,2013-03-14 23:02:00,
2013-03-14 16:11:00,60.0,51.0,30.08,SSW,193,1.0,-999.0,72,-99.99,,,-99.99,,2013-03-14 23:11:00,
2013-03-14 16:21:00,61.0,51.0,30.07,SSW,194,1.0,-999.0,70,-99.99,,,-99.99,,2013-03-14 23:21:00,
2013-03-14 16:32:00,62.0,52.0,30.07,SSW,200,0.0,-999.0,70,-99.99,,,-99.99,,2013-03-14 23:32:00,
2013-03-14 16:42:00,62.0,52.0,30.07,SSW,200,0.0,-999.0,70,-99.99,,,-99.99,,2013-03-14 23:42:00,
2013-03-14 16:53:00,63.0,53.0,30.06,SSW,200,1.0,-999.0,69,-99.99,,,-99.99,,2013-03-14 23:53:00,
2013-03-14 17:01:00,61.0,51.0,30.07,SSW,194,2.0,-999.0,69,-99.99,,,-99.99,,2013-03-15 00:01:00,
2013-03-14 17:11:00,63.0,52.0,30.06,SSW,199,1.0,-999.0,68,-99.99,,,-99.99,,2013-03-15 00:11:00,
2013-03-14 17:22:00,63.0,52.0,30.06,SSW,199,1.0,-999.0,68,-99.99,,,-99.99,,2013-03-15 00:22:00,
2013-03-14 17:31:00,60.0,50.0,30.06,SSW,201,1.0,-999.0,70,-99.99,,,-99.99,,2013-03-15 00:31:00,
2013-03-14 17:42:00,60.0,50.0,30.06,SSW,201,1.0,-999.0,70,-99.99,,,-99.99,,2013-03-15 00:42:00,
2013-03-14 17:52:00,61.0,50.0,30.05,SSW,201,0.0,-999.0,68,-99.99,,,-99.99,,2013-03-15 00:52:00,
2013-03-14 18:01:00,60.0,51.0,30.05,SSW,200,1.0,-999.0,72,-99.99,,,-99.99,,2013-03-15 01:01:00,
2013-03-14 18:11:00,60.0,51.0,30.05,SSW,200,1.0,-999.0,72,-99.99,,,-99.99,,2013-03-15 01:11:00,
2013-03-14 18:21:00,58.0,50.0,30.05,SSW,200,0.0,-999.0,74,-99.99,,,-99.99,,2013-03-15 01:21:00,
2013-03-14 18:32:00,59.0,50.0,30.04,SSW,200,0.0,-999.0,72,-99.99,,,-99.99,,2013-03-15 01:32:00,
2013-03-14 18:42:00,59.0,50.0,30.04,SSW,200,0.0,-999.0,72,-99.99,,,-99.99,,2013-03-15 01:42:00,
2013-03-14 18:52:00,58.0,50.0,30.05,SSW,200,0.0,-999.0,75,-99.99,,,-99.99,,2013-03-15 01:52:00,
2013-03-14 19:02:00,59.0,49.0,30.03,SSW,200,0.0,-999.0,69,-99.99,,,-99.99,,2013-03-15 02:02:00,
2013-03-14 19:11:00,59.0,49.0,30.03,SSW,200,0.0,-999.0,69,-99.99,,,-99.99,,2013-03-15 02:11:00,
2013-03-14 19:22:00,60.0,50.0,30.03,SSW,200,1.0,-999.0,69,-99.99,,,-99.99,,2013-03-15 02:22:00,
2013-03-14 19:32:00,61.0,50.0,30.03,SSW,198,1.0,-999.0,67,-99.99,,,-99.99,,2013-03-15 02:32:00,
2013-03-14 19:42:00,61.0,50.0,30.03,SSW,198,1.0,-999.0,67,-99.99,,,-99.99,,2013-03-15 02:42:00,
2013-03-14 19:52:00,62.0,50.0,30.03,SSW,199,1.0,-999.0,64,-99.99,,,-99.99,,2013-03-15 02:52:00,
2013-03-14 20:01:00,64.0,46.0,30.03,SSW,199,0.0,-999.0,52,-99.99,,,-99.99,,2013-03-15 03:01:00,
2013-03-14 20:11:00,64.0,46.0,30.03,SSW,199,0.0,-999.0,52,-99.99,,,-99.99,,2013-03-15 03:11:00,
2013-03-14 20:22:00,65.0,47.0,30.03,SSW,200,0.0,-999.0,52,-99.99,,,-99.99,,2013-03-15 03:22:00,
2013-03-14 20:32:00,64.0,47.0,30.03,West,271,0.0,-999.0,54,-99.99,,,-99.99,,2013-03-15 03:32:00,
2013-03-14 20:42:00,64.0,47.0,30.03,West,271,0.0,-999.0,54,-99.99,,,-99.99,,2013-03-15 03:42:00,
2013-03-14 20:52:00,66.0,47.0,30.04,WNW,294,0.0,-999.0,50,-99.99,,,-99.99,,2013-03-15 03:52:00,
2013-03-14 21:02:00,66.0,47.0,30.04,NW,311,1.0,-999.0,51,-99.99,,,-99.99,,2013-03-15 04:02:00,
2013-03-14 21:22:00,66.0,45.0,30.03,NW,311,0.0,-999.0,47,-99.99,,,-99.99,,2013-03-15 04:22:00,
2013-03-14 21:32:00,62.0,47.0,30.05,WNW,284,2.0,-999.0,59,-99.99,,,-99.99,,2013-03-15 04:32:00,
2013-03-14 21:42:00,62.0,47.0,30.05,WNW,284,2.0,-999.0,59,-99.99,,,-99.99,,2013-03-15 04:42:00,
2013-03-14 21:53:00,62.0,48.0,30.04,WNW,294,1.0,-999.0,60,-99.99,,,-99.99,,2013-03-15 04:53:00,
2013-03-14 22:02:00,62.0,47.0,30.04,WNW,297,0.0,-999.0,59,-99.99,,,-99.99,,2013-03-15 05:02:00,
2013-03-14 22:22:00,58.0,48.0,30.05,North,11,3.0,-999.0,69,-99.99,,,-99.99,,2013-03-15 05:22:00,
2013-03-14 22:31:00,59.0,48.0,30.05,North,5,1.0,-999.0,67,-99.99,,,-99.99,,2013-03-15 05:31:00,
2013-03-14 22:42:00,59.0,48.0,30.05,North,5,1.0,-999.0,67,-99.99,,,-99.99,,2013-03-15 05:42:00,
2013-03-14 22:52:00,59.0,47.0,30.06,North,355,0.0,-999.0,65,-99.99,,,-99.99,,2013-03-15 05:52:00,
2013-03-14 23:01:00,58.0,47.0,30.07,WSW,241,1.0,-999.0,68,-99.99,,,-99.99,,2013-03-15 06:01:00,
2013-03-14 23:11:00,58.0,47.0,30.07,WSW,241,1.0,-999.0,68,-99.99,,,-99.99,,2013-03-15 06:11:00,
2013-03-14 23:22:00,56.0,47.0,30.06,NNE,18,2.0,-999.0,73,-99.99,,,-99.99,,2013-03-15 06:22:00,
2013-03-14 23:32:00,56.0,47.0,30.06,NNE,18,2.0,-999.0,73,-99.99,,,-99.99,,2013-03-15 06:32:00,
2013-03-14 23:41:00,56.0,47.0,30.06,NNE,18,2.0,-999.0,73,-99.99,,,-99.99,,2013-03-15 06:41:00,
2013-03-14 23:52:00,58.0,47.0,30.07,WSW,242,2.0,-999.0,68,-99.99,,,-99.99,,2013-03-15 06:52:00,